Share

Glenwood, MN

KMGK (Magic 107.1) FM (KMNGLENW1) Elev 1168 ft | 45.65 °N, 95.39 °W | Change Station

Current weather conditions updated 2 seconds ago

Clear
Clear
53.7 °F
Feels Like 53.7 °F
N
12.0
Wind Variable Wind from NNW
Gusts 21.0 mph
Sunrise 6:25 AM
Sunset 8:15 PM
Moon Waning Gibbous

Today is forecast to be Much Cooler than yesterday.

Pressure 30.03 in
Visibility 10.0 miles
Clouds Clear
Dew Point 41 °F
Humidity 63%
Rainfall 0.00 in
Snow Depth Not available.
UV 7 out of 16
Pollen 9.70 out of 12
Air Quality Not available.
Flu Activity Sporadic
METAR KGHW 211613Z AUTO 32019G23KT 10SM CLR 13/04 A3003 RMK AO2

More Conditions Fewer Conditions

Pressure 30.03 in
Visibility 10.0 miles
Clouds Clear
Dew Point 41 °F
Humidity 63%
Rainfall 0.00 in
Snow Depth Not available.
UV 7 out of 16
Pollen 9.70 out of 12
Air Quality Not available.
Flu Activity Sporadic
METAR KGHW 211613Z AUTO 32019G23KT 10SM CLR 13/04 A3003 RMK AO2

More Conditions Fewer Conditions

10-Day Weather Forecast

Almanac

Astronomy

Apr. 21, 2014 Rise Set
Actual Time 6:25 AM CDT 8:15 PM CDT
Civil Twilight 5:53 AM CDT 8:47 PM CDT
Nautical Twilight 5:15 AM CDT 9:26 PM CDT
Astronomical Twilight 4:33 AM CDT 10:08 PM CDT
Moon 1:51 AM CDT 11:49 AM CDT
Length of Visible Light 14h 53m
Length of Day
13h 50m
Tomorrow will be 2m 59s longer.
Waning Gibbous, 57% of the Moon is Illuminated
Today
Waning Gibbous
Apr 22
Last Quarter
Apr 29
New
May 6
First Quarter
May 14
Full

Today's Extremes

State Highs State Lows

Community

  • Glass on White Lake
    Glass on White Lake
  • Bright Eyes
    Bright Eyes
  • Snowy Robin
    Snowy Robin
  • Spring Crocus
    Spring Crocus
  • Sun Pillar and Geese
    Sun Pillar and Geese

WunderPhotos

Upload Photos

1,703,682 photos uploaded!

WunderBlogs® & News

Nearby

Snow Depth

Station Depth Elevation
No new snow has been reported.

Coastal Water Temperatures

Place Temperature
No Stations Reporting

Earthquake Activity

City Distance Mag. Time & Date
No recent earthquake activity has been reported nearby.
Minimum magnitude displayed is 2.5.

Nearby Weather Stations

Station Location Temp. Dew Point Humidity Wind Precip. Elev Updated Type
KMGK (Magic 107.1) FM, Glenwood, MN 53.7 °F 41 °F 63% NNW  at  12.0 mph 0.00 in / hr 1168 ft 11:35 AM CDT Rapid Fire
Sauk Centre, Sauk Centre, MN 54.3 °F 41 °F 61% North  at  17.4 mph 0.00 in / hr 1253 ft 11:35 AM CDT Rapid Fire
Hoffman MN, Hoffman, MN 50.7 °F 40 °F 66% NNW  at  16.8 mph 0.00 in / hr 1240 ft 11:34 AM CDT Normal

Show More Stations Show Fewer Stations

What do you think?

We're not finished. Please let us know what you like, what you don't like, and what you are still missing.